sensor_id;sensor_type;location;lat;lon;timestamp;pressure;altitude;pressure_sealevel;temperature;humidity
59825;BME280;45703;50.898;6.054;2024-02-26T00:01:14;98195.59;;;6.16;100.00
59825;BME280;45703;50.898;6.054;2024-02-26T00:03:40;98200.66;;;6.17;100.00
59825;BME280;45703;50.898;6.054;2024-02-26T00:06:07;98205.47;;;6.20;100.00
59825;BME280;45703;50.898;6.054;2024-02-26T00:08:32;98210.19;;;6.18;100.00
59825;BME280;45703;50.898;6.054;2024-02-26T00:10:58;98205.94;;;6.17;100.00
59825;BME280;45703;50.898;6.054;2024-02-26T00:13:23;98207.53;;;6.18;100.00
59825;BME280;45703;50.898;6.054;2024-02-26T00:15:48;98205.94;;;6.17;100.00
59825;BME280;45703;50.898;6.054;2024-02-26T00:18:14;98205.66;;;6.14;100.00
59825;BME280;45703;50.898;6.054;2024-02-26T00:20:39;98202.72;;;6.15;100.00
59825;BME280;45703;50.898;6.054;2024-02-26T00:23:06;98184.69;;;6.12;100.00
59825;BME280;45703;50.898;6.054;2024-02-26T00:25:32;98183.31;;;6.10;100.00
59825;BME280;45703;50.898;6.054;2024-02-26T00:27:57;98195.19;;;6.07;100.00
59825;BME280;45703;50.898;6.054;2024-02-26T00:30:23;98192.78;;;6.06;100.00
59825;BME280;45703;50.898;6.054;2024-02-26T00:32:48;98188.78;;;6.03;100.00
59825;BME280;45703;50.898;6.054;2024-02-26T00:35:13;98189.34;;;6.05;100.00
59825;BME280;45703;50.898;6.054;2024-02-26T00:37:40;98185.09;;;6.04;100.00
59825;BME280;45703;50.898;6.054;2024-02-26T00:40:08;98188.22;;;6.01;100.00
59825;BME280;45703;50.898;6.054;2024-02-26T00:42:34;98187.91;;;5.98;100.00
59825;BME280;45703;50.898;6.054;2024-02-26T00:44:59;98173.88;;;5.97;100.00
59825;BME280;45703;50.898;6.054;2024-02-26T00:47:24;98179.16;;;5.97;100.00
59825;BME280;45703;50.898;6.054;2024-02-26T00:49:50;98181.47;;;5.94;100.00
59825;BME280;45703;50.898;6.054;2024-02-26T00:52:15;98183.16;;;6.00;100.00
59825;BME280;45703;50.898;6.054;2024-02-26T00:54:40;98177.28;;;5.98;100.00
59825;BME280;45703;50.898;6.054;2024-02-26T00:57:06;98176.50;;;5.97;100.00
59825;BME280;45703;50.898;6.054;2024-02-26T00:59:31;98173.31;;;5.95;100.00
59825;BME280;45703;50.898;6.054;2024-02-26T01:01:57;98172.75;;;5.93;100.00
59825;BME280;45703;50.898;6.054;2024-02-26T01:04:23;98174.09;;;5.96;100.00
59825;BME280;45703;50.898;6.054;2024-02-26T01:06:49;98170.19;;;5.98;100.00
59825;BME280;45703;50.898;6.054;2024-02-26T01:09:14;98186.84;;;5.99;100.00
59825;BME280;45703;50.898;6.054;2024-02-26T01:11:39;98182.44;;;6.04;100.00
59825;BME280;45703;50.898;6.054;2024-02-26T01:14:05;98181.56;;;5.99;100.00
59825;BME280;45703;50.898;6.054;2024-02-26T01:16:31;98179.25;;;6.02;100.00
59825;BME280;45703;50.898;6.054;2024-02-26T01:18:57;98175.97;;;5.95;100.00
59825;BME280;45703;50.898;6.054;2024-02-26T01:21:22;98186.06;;;5.98;100.00
59825;BME280;45703;50.898;6.054;2024-02-26T01:23:47;98178.69;;;6.00;100.00
59825;BME280;45703;50.898;6.054;2024-02-26T01:26:13;98174.66;;;5.98;100.00
59825;BME280;45703;50.898;6.054;2024-02-26T01:28:38;98160.84;;;5.96;100.00
59825;BME280;45703;50.898;6.054;2024-02-26T01:31:03;98174.09;;;5.96;100.00
59825;BME280;45703;50.898;6.054;2024-02-26T01:33:31;98170.31;;;5.92;100.00
59825;BME280;45703;50.898;6.054;2024-02-26T01:35:57;98178.69;;;6.00;100.00
59825;BME280;45703;50.898;6.054;2024-02-26T01:38:22;98174.34;;;5.94;100.00
59825;BME280;45703;50.898;6.054;2024-02-26T01:40:48;98179.72;;;5.99;100.00
59825;BME280;45703;50.898;6.054;2024-02-26T01:43:13;98177.84;;;6.00;100.00
59825;BME280;45703;50.898;6.054;2024-02-26T01:45:38;98171.28;;;6.02;100.00
59825;BME280;45703;50.898;6.054;2024-02-26T01:48:04;98177.28;;;5.98;100.00
59825;BME280;45703;50.898;6.054;2024-02-26T01:50:30;98177.56;;;5.96;100.00
59825;BME280;45703;50.898;6.054;2024-02-26T01:52:56;98171.22;;;5.97;100.00
59825;BME280;45703;50.898;6.054;2024-02-26T01:55:23;98170.97;;;5.99;100.00
59825;BME280;45703;50.898;6.054;2024-02-26T01:57:49;98181.00;;;5.97;100.00
59825;BME280;45703;50.898;6.054;2024-02-26T02:00:18;98178.69;;;6.00;100.00
59825;BME280;45703;50.898;6.054;2024-02-26T02:02:44;98171.22;;;5.97;100.00
59825;BME280;45703;50.898;6.054;2024-02-26T02:05:12;98186.06;;;5.98;100.00
59825;BME280;45703;50.898;6.054;2024-02-26T02:07:40;98179.66;;;5.94;100.00
59825;BME280;45703;50.898;6.054;2024-02-26T02:10:06;98181.31;;;6.00;100.00
59825;BME280;45703;50.898;6.054;2024-02-26T02:12:32;98179.94;;;5.98;100.00
59825;BME280;45703;50.898;6.054;2024-02-26T02:14:59;98179.66;;;5.94;100.00
59825;BME280;45703;50.898;6.054;2024-02-26T02:17:26;98181.72;;;5.92;100.00
59825;BME280;45703;50.898;6.054;2024-02-26T02:19:52;98176.44;;;5.92;100.00
59825;BME280;45703;50.898;6.054;2024-02-26T02:22:18;98172.66;;;5.88;100.00
59825;BME280;45703;50.898;6.054;2024-02-26T02:24:44;98164.72;;;5.88;100.00
59825;BME280;45703;50.898;6.054;2024-02-26T02:27:09;98168.97;;;5.89;100.00
59825;BME280;45703;50.898;6.054;2024-02-26T02:29:35;98180.13;;;5.91;100.00
59825;BME280;45703;50.898;6.054;2024-02-26T02:32:01;98179.56;;;5.89;100.00
59825;BME280;45703;50.898;6.054;2024-02-26T02:34:27;98179.56;;;5.89;100.00
59825;BME280;45703;50.898;6.054;2024-02-26T02:36:53;98181.72;;;5.92;100.00
59825;BME280;45703;50.898;6.054;2024-02-26T02:39:20;98169.63;;;5.96;100.00
59825;BME280;45703;50.898;6.054;2024-02-26T02:41:45;98178.34;;;5.97;100.00
59825;BME280;45703;50.898;6.054;2024-02-26T02:44:11;98178.81;;;5.94;100.00
59825;BME280;45703;50.898;6.054;2024-02-26T02:46:37;98178.53;;;5.90;100.00
59825;BME280;45703;50.898;6.054;2024-02-26T02:49:02;98178.03;;;5.93;100.00
59825;BME280;45703;50.898;6.054;2024-02-26T02:51:28;98180.13;;;5.91;100.00
59825;BME280;45703;50.898;6.054;2024-02-26T02:53:53;98172.75;;;5.93;100.00
59825;BME280;45703;50.898;6.054;2024-02-26T02:56:19;98192.31;;;5.92;100.00
59825;BME280;45703;50.898;6.054;2024-02-26T02:58:44;98179.78;;;5.88;100.00
59825;BME280;45703;50.898;6.054;2024-02-26T03:01:10;98194.16;;;5.92;100.00
59825;BME280;45703;50.898;6.054;2024-02-26T03:03:35;98174.97;;;5.85;100.00
59825;BME280;45703;50.898;6.054;2024-02-26T03:06:02;98181.06;;;5.85;100.00
59825;BME280;45703;50.898;6.054;2024-02-26T03:08:28;98186.84;;;5.82;100.00
59825;BME280;45703;50.898;6.054;2024-02-26T03:10:54;98183.28;;;5.77;100.00
59825;BME280;45703;50.898;6.054;2024-02-26T03:13:19;98186.16;;;5.75;100.00
59825;BME280;45703;50.898;6.054;2024-02-26T03:15:44;98204.13;;;5.73;100.00
59825;BME280;45703;50.898;6.054;2024-02-26T03:18:10;98194.50;;;5.67;100.00
59825;BME280;45703;50.898;6.054;2024-02-26T03:20:35;98201.75;;;5.72;100.00
59825;BME280;45703;50.898;6.054;2024-02-26T03:23:02;98209.13;;;5.70;100.00
59825;BME280;45703;50.898;6.054;2024-02-26T03:25:27;98195.34;;;5.68;100.00
59825;BME280;45703;50.898;6.054;2024-02-26T03:27:53;98197.41;;;5.66;100.00
59825;BME280;45703;50.898;6.054;2024-02-26T03:30:18;98200.28;;;5.64;100.00
59825;BME280;45703;50.898;6.054;2024-02-26T03:32:43;98191.22;;;5.61;100.00
59825;BME280;45703;50.898;6.054;2024-02-26T03:35:09;98195.94;;;5.59;100.00
59825;BME280;45703;50.898;6.054;2024-02-26T03:37:34;98195.13;;;5.58;100.00
59825;BME280;45703;50.898;6.054;2024-02-26T03:40:00;98197.06;;;5.63;100.00
59825;BME280;45703;50.898;6.054;2024-02-26T03:42:26;98197.28;;;5.61;100.00
59825;BME280;45703;50.898;6.054;2024-02-26T03:44:52;98195.94;;;5.59;100.00
59825;BME280;45703;50.898;6.054;2024-02-26T03:47:17;98200.75;;;5.62;100.00
59825;BME280;45703;50.898;6.054;2024-02-26T03:49:42;98204.44;;;5.61;100.00
59825;BME280;45703;50.898;6.054;2024-02-26T03:52:08;98205.56;;;5.64;100.00
59825;BME280;45703;50.898;6.054;2024-02-26T03:54:33;98203.97;;;5.63;100.00
59825;BME280;45703;50.898;6.054;2024-02-26T03:56:58;98191.78;;;5.63;100.00
59825;BME280;45703;50.898;6.054;2024-02-26T03:59:24;98191.78;;;5.63;100.00
59825;BME280;45703;50.898;6.054;2024-02-26T04:01:50;98195.00;;;5.64;100.00
59825;BME280;45703;50.898;6.054;2024-02-26T04:04:16;98205.09;;;5.67;100.00
59825;BME280;45703;50.898;6.054;2024-02-26T04:06:45;98201.31;;;5.63;100.00
59825;BME280;45703;50.898;6.054;2024-02-26T04:09:13;98202.16;;;5.64;100.00
59825;BME280;45703;50.898;6.054;2024-02-26T04:11:38;98195.00;;;5.64;100.00
59825;BME280;45703;50.898;6.054;2024-02-26T04:14:04;98191.78;;;5.63;100.00
59825;BME280;45703;50.898;6.054;2024-02-26T04:16:31;98203.00;;;5.69;100.00
59825;BME280;45703;50.898;6.054;2024-02-26T04:18:56;98201.41;;;5.68;100.00
59825;BME280;45703;50.898;6.054;2024-02-26T04:21:21;98201.41;;;5.68;100.00
59825;BME280;45703;50.898;6.054;2024-02-26T04:23:47;98203.00;;;5.69;100.00
59825;BME280;45703;50.898;6.054;2024-02-26T04:26:14;98201.75;;;5.72;100.00
59825;BME280;45703;50.898;6.054;2024-02-26T04:28:39;98203.34;;;5.73;100.00
59825;BME280;45703;50.898;6.054;2024-02-26T04:31:05;98203.09;;;5.74;100.00
59825;BME280;45703;50.898;6.054;2024-02-26T04:33:30;98207.81;;;5.72;100.00
59825;BME280;45703;50.898;6.054;2024-02-26T04:35:58;98209.78;;;5.77;100.00
59825;BME280;45703;50.898;6.054;2024-02-26T04:38:24;98197.81;;;5.74;100.00
59825;BME280;45703;50.898;6.054;2024-02-26T04:40:49;98205.75;;;5.74;100.00
59825;BME280;45703;50.898;6.054;2024-02-26T04:43:14;98204.97;;;5.74;100.00
59825;BME280;45703;50.898;6.054;2024-02-26T04:45:41;98202.41;;;5.79;100.00
59825;BME280;45703;50.898;6.054;2024-02-26T04:48:06;98202.63;;;5.77;100.00
59825;BME280;45703;50.898;6.054;2024-02-26T04:50:32;98199.41;;;5.75;100.00
59825;BME280;45703;50.898;6.054;2024-02-26T04:52:57;98209.53;;;5.78;100.00
59825;BME280;45703;50.898;6.054;2024-02-26T04:55:22;98212.75;;;5.80;100.00
59825;BME280;45703;50.898;6.054;2024-02-26T04:57:48;98208.94;;;5.76;100.00
59825;BME280;45703;50.898;6.054;2024-02-26T05:00:13;98210.56;;;5.77;100.00
59825;BME280;45703;50.898;6.054;2024-02-26T05:02:39;98213.78;;;5.79;100.00
59825;BME280;45703;50.898;6.054;2024-02-26T05:05:06;98204.03;;;5.80;100.00
59825;BME280;45703;50.898;6.054;2024-02-26T05:07:31;98207.47;;;5.80;100.00
59825;BME280;45703;50.898;6.054;2024-02-26T05:09:57;98217.25;;;5.80;100.00
59825;BME280;45703;50.898;6.054;2024-02-26T05:12:22;98212.75;;;5.80;100.00
59825;BME280;45703;50.898;6.054;2024-02-26T05:14:48;98212.06;;;5.85;100.00
59825;BME280;45703;50.898;6.054;2024-02-26T05:17:13;98220.47;;;5.82;100.00
59825;BME280;45703;50.898;6.054;2024-02-26T05:19:38;98213.78;;;5.79;100.00
59825;BME280;45703;50.898;6.054;2024-02-26T05:22:04;98220.69;;;5.80;100.00
59825;BME280;45703;50.898;6.054;2024-02-26T05:24:29;98229.19;;;5.82;100.00
59825;BME280;45703;50.898;6.054;2024-02-26T05:26:55;98225.19;;;5.80;100.00
59825;BME280;45703;50.898;6.054;2024-02-26T05:29:20;98230.13;;;5.76;100.00
59825;BME280;45703;50.898;6.054;2024-02-26T05:31:46;98241.88;;;5.80;100.00
59825;BME280;45703;50.898;6.054;2024-02-26T05:34:11;98238.66;;;5.78;100.00
59825;BME280;45703;50.898;6.054;2024-02-26T05:36:36;98240.53;;;5.78;100.00
59825;BME280;45703;50.898;6.054;2024-02-26T05:39:02;98243.47;;;5.81;100.00
59825;BME280;45703;50.898;6.054;2024-02-26T05:41:29;98234.84;;;5.74;100.00
59825;BME280;45703;50.898;6.054;2024-02-26T05:43:55;98233.81;;;5.75;100.00
59825;BME280;45703;50.898;6.054;2024-02-26T05:46:20;98248.09;;;5.74;100.00
59825;BME280;45703;50.898;6.054;2024-02-26T05:48:47;98240.06;;;5.69;100.00
59825;BME280;45703;50.898;6.054;2024-02-26T05:51:13;98248.22;;;5.79;100.00
59825;BME280;45703;50.898;6.054;2024-02-26T05:53:38;98253.94;;;5.76;100.00
59825;BME280;45703;50.898;6.054;2024-02-26T05:56:04;98260.75;;;5.72;100.00
59825;BME280;45703;50.898;6.054;2024-02-26T05:58:31;98254.03;;;5.65;100.00
59825;BME280;45703;50.898;6.054;2024-02-26T06:00:56;98274.47;;;5.69;100.00
59825;BME280;45703;50.898;6.054;2024-02-26T06:03:21;98266.59;;;5.58;100.00
59825;BME280;45703;50.898;6.054;2024-02-26T06:05:47;98288.56;;;5.59;100.00
59825;BME280;45703;50.898;6.054;2024-02-26T06:08:12;98280.63;;;5.59;100.00
59825;BME280;45703;50.898;6.054;2024-02-26T06:10:39;98289.63;;;5.58;100.00
59825;BME280;45703;50.898;6.054;2024-02-26T06:13:05;98290.09;;;5.55;100.00
59825;BME280;45703;50.898;6.054;2024-02-26T06:15:30;98297.47;;;5.53;100.00
59825;BME280;45703;50.898;6.054;2024-02-26T06:17:56;98296.31;;;5.49;100.00
59825;BME280;45703;50.898;6.054;2024-02-26T06:20:21;98305.31;;;5.48;100.00
59825;BME280;45703;50.898;6.054;2024-02-26T06:22:47;98305.31;;;5.48;100.00
59825;BME280;45703;50.898;6.054;2024-02-26T06:25:12;98309.78;;;5.47;100.00
59825;BME280;45703;50.898;6.054;2024-02-26T06:27:37;98310.91;;;5.51;100.00
59825;BME280;45703;50.898;6.054;2024-02-26T06:30:03;98315.41;;;5.51;100.00
59825;BME280;45703;50.898;6.054;2024-02-26T06:32:29;98303.69;;;5.47;100.00
59825;BME280;45703;50.898;6.054;2024-02-26T06:34:54;98317.50;;;5.49;100.00
59825;BME280;45703;50.898;6.054;2024-02-26T06:37:20;98320.63;;;5.46;100.00
59825;BME280;45703;50.898;6.054;2024-02-26T06:39:45;98320.16;;;5.49;100.00
59825;BME280;45703;50.898;6.054;2024-02-26T06:42:11;98331.19;;;5.46;100.00
59825;BME280;45703;50.898;6.054;2024-02-26T06:44:36;98340.97;;;5.45;100.00
59825;BME280;45703;50.898;6.054;2024-02-26T06:47:02;98344.44;;;5.46;100.00
59825;BME280;45703;50.898;6.054;2024-02-26T06:49:28;98340.41;;;5.43;100.00
59825;BME280;45703;50.898;6.054;2024-02-26T06:51:54;98342.72;;;5.40;100.00
59825;BME280;45703;50.898;6.054;2024-02-26T06:54:19;98337.53;;;5.45;100.00
59825;BME280;45703;50.898;6.054;2024-02-26T06:56:45;98353.41;;;5.45;100.00
59825;BME280;45703;50.898;6.054;2024-02-26T06:59:10;98348.81;;;5.40;100.00
59825;BME280;45703;50.898;6.054;2024-02-26T07:01:36;98355.56;;;5.48;100.00
59825;BME280;45703;50.898;6.054;2024-02-26T07:04:01;98355.69;;;5.53;100.00
59825;BME280;45703;50.898;6.054;2024-02-26T07:06:27;98356.94;;;5.50;100.00
59825;BME280;45703;50.898;6.054;2024-02-26T07:08:52;98351.53;;;5.45;100.00
59825;BME280;45703;50.898;6.054;2024-02-26T07:11:18;98360.41;;;5.51;100.00
59825;BME280;45703;50.898;6.054;2024-02-26T07:13:45;98366.72;;;5.50;100.00
59825;BME280;45703;50.898;6.054;2024-02-26T07:16:10;98368.75;;;5.59;100.00
59825;BME280;45703;50.898;6.054;2024-02-26T07:18:36;98370.25;;;5.55;100.00
59825;BME280;45703;50.898;6.054;2024-02-26T07:21:02;98382.00;;;5.59;100.00
59825;BME280;45703;50.898;6.054;2024-02-26T07:23:29;98374.31;;;5.58;100.00
59825;BME280;45703;50.898;6.054;2024-02-26T07:25:54;98375.56;;;5.55;100.00
59825;BME280;45703;50.898;6.054;2024-02-26T07:28:19;98377.88;;;5.52;100.00
59825;BME280;45703;50.898;6.054;2024-02-26T07:30:45;98375.81;;;5.54;100.00
59825;BME280;45703;50.898;6.054;2024-02-26T07:33:10;98379.13;;;5.61;100.00
59825;BME280;45703;50.898;6.054;2024-02-26T07:35:36;98378.19;;;5.55;100.00
59825;BME280;45703;50.898;6.054;2024-02-26T07:38:04;98389.91;;;5.70;100.00
59825;BME280;45703;50.898;6.054;2024-02-26T07:40:29;98390.84;;;5.64;100.00
59825;BME280;45703;50.898;6.054;2024-02-26T07:42:55;98387.41;;;5.64;100.00
59825;BME280;45703;50.898;6.054;2024-02-26T07:45:21;98400.75;;;5.58;100.00
59825;BME280;45703;50.898;6.054;2024-02-26T07:47:47;98399.03;;;5.63;100.00
59825;BME280;45703;50.898;6.054;2024-02-26T07:50:12;98404.75;;;5.71;100.00
59825;BME280;45703;50.898;6.054;2024-02-26T07:52:38;98396.72;;;5.66;100.00
59825;BME280;45703;50.898;6.054;2024-02-26T07:55:04;98399.81;;;5.63;100.00
59825;BME280;45703;50.898;6.054;2024-02-26T07:57:30;98410.97;;;5.65;100.00
59825;BME280;45703;50.898;6.054;2024-02-26T07:59:55;98412.50;;;5.62;100.00
59825;BME280;45703;50.898;6.054;2024-02-26T08:02:21;98421.47;;;5.61;100.00
59825;BME280;45703;50.898;6.054;2024-02-26T08:04:47;98421.25;;;5.62;100.00
59825;BME280;45703;50.898;6.054;2024-02-26T08:07:12;98431.84;;;5.62;100.00
59825;BME280;45703;50.898;6.054;2024-02-26T08:09:38;98438.75;;;5.63;100.00
59825;BME280;45703;50.898;6.054;2024-02-26T08:12:03;98429.41;;;5.61;100.00
59825;BME280;45703;50.898;6.054;2024-02-26T08:14:29;98438.84;;;5.68;100.00
59825;BME280;45703;50.898;6.054;2024-02-26T08:16:54;98429.63;;;5.59;100.00
59825;BME280;45703;50.898;6.054;2024-02-26T08:19:20;98444.25;;;5.62;100.00
59825;BME280;45703;50.898;6.054;2024-02-26T08:21:45;98439.19;;;5.60;100.00
59825;BME280;45703;50.898;6.054;2024-02-26T08:24:10;98453.34;;;5.65;100.00
59825;BME280;45703;50.898;6.054;2024-02-26T08:26:36;98452.75;;;5.63;100.00
59825;BME280;45703;50.898;6.054;2024-02-26T08:29:01;98449.53;;;5.62;100.00
59825;BME280;45703;50.898;6.054;2024-02-26T08:31:27;98461.53;;;5.64;100.00
59825;BME280;45703;50.898;6.054;2024-02-26T08:33:53;98452.75;;;5.63;100.00
59825;BME280;45703;50.898;6.054;2024-02-26T08:36:18;98455.50;;;5.68;100.00
59825;BME280;45703;50.898;6.054;2024-02-26T08:38:43;98460.81;;;5.68;100.00
59825;BME280;45703;50.898;6.054;2024-02-26T08:41:09;98464.97;;;5.64;100.00
59825;BME280;45703;50.898;6.054;2024-02-26T08:43:35;98469.22;;;5.65;100.00
59825;BME280;45703;50.898;6.054;2024-02-26T08:46:01;98466.09;;;5.68;100.00
59825;BME280;45703;50.898;6.054;2024-02-26T08:48:26;98476.22;;;5.71;100.00
59825;BME280;45703;50.898;6.054;2024-02-26T08:50:51;98472.53;;;5.72;100.00
59825;BME280;45703;50.898;6.054;2024-02-26T08:53:17;98474.59;;;5.70;100.00
59825;BME280;45703;50.898;6.054;2024-02-26T08:55:42;98478.28;;;5.69;100.00
59825;BME280;45703;50.898;6.054;2024-02-26T08:58:07;98486.91;;;5.76;100.00
59825;BME280;45703;50.898;6.054;2024-02-26T09:00:33;98484.72;;;5.73;100.00
59825;BME280;45703;50.898;6.054;2024-02-26T09:02:58;98487.50;;;5.78;100.00
59825;BME280;45703;50.898;6.054;2024-02-26T09:05:24;98482.66;;;5.75;100.00
59825;BME280;45703;50.898;6.054;2024-02-26T09:07:49;98495.25;;;5.80;100.00
59825;BME280;45703;50.898;6.054;2024-02-26T09:10:17;98498.09;;;5.78;100.00
59825;BME280;45703;50.898;6.054;2024-02-26T09:12:42;98498.69;;;5.80;100.00
59825;BME280;45703;50.898;6.054;2024-02-26T09:15:08;98501.91;;;5.82;100.00
59825;BME280;45703;50.898;6.054;2024-02-26T09:17:33;98519.53;;;5.88;100.00
59825;BME280;45703;50.898;6.054;2024-02-26T09:19:58;98520.88;;;5.91;100.00
59825;BME280;45703;50.898;6.054;2024-02-26T09:22:24;98518.59;;;5.94;100.00
59825;BME280;45703;50.898;6.054;2024-02-26T09:24:49;98523.44;;;5.97;100.00
59825;BME280;45703;50.898;6.054;2024-02-26T09:27:16;98527.22;;;6.01;100.00
59825;BME280;45703;50.898;6.054;2024-02-26T09:29:42;98528.34;;;6.05;100.00
59825;BME280;45703;50.898;6.054;2024-02-26T09:32:08;98531.00;;;6.05;100.00
59825;BME280;45703;50.898;6.054;2024-02-26T09:34:33;98531.47;;;6.02;100.00
59825;BME280;45703;50.898;6.054;2024-02-26T09:36:59;98542.38;;;6.06;100.00
59825;BME280;45703;50.898;6.054;2024-02-26T09:39:25;98537.09;;;6.06;100.00
59825;BME280;45703;50.898;6.054;2024-02-26T09:41:51;98544.34;;;6.10;100.00
59825;BME280;45703;50.898;6.054;2024-02-26T09:44:19;98550.44;;;6.11;100.00
59825;BME280;45703;50.898;6.054;2024-02-26T09:46:52;98549.19;;;6.13;100.00
59825;BME280;45703;50.898;6.054;2024-02-26T09:49:19;98552.41;;;6.15;100.00
59825;BME280;45703;50.898;6.054;2024-02-26T09:51:45;98552.50;;;6.20;100.00
59825;BME280;45703;50.898;6.054;2024-02-26T09:54:12;98556.19;;;6.19;100.00
59825;BME280;45703;50.898;6.054;2024-02-26T09:56:39;98557.78;;;6.20;100.00
59825;BME280;45703;50.898;6.054;2024-02-26T09:59:15;98564.97;;;6.20;100.00
59825;BME280;45703;50.898;6.054;2024-02-26T10:01:42;98562.53;;;6.18;100.00
59825;BME280;45703;50.898;6.054;2024-02-26T10:04:08;98575.78;;;6.18;100.00
59825;BME280;45703;50.898;6.054;2024-02-26T10:06:36;98570.25;;;6.20;100.00
59825;BME280;45703;50.898;6.054;2024-02-26T10:09:02;98568.19;;;6.22;100.00
59825;BME280;45703;50.898;6.054;2024-02-26T10:11:32;98575.97;;;6.28;100.00
59825;BME280;45703;50.898;6.054;2024-02-26T10:13:57;98571.72;;;6.27;100.00
59825;BME280;45703;50.898;6.054;2024-02-26T10:16:24;98575.03;;;6.34;100.00
59825;BME280;45703;50.898;6.054;2024-02-26T10:18:50;98571.47;;;6.40;100.00
59825;BME280;45703;50.898;6.054;2024-02-26T10:21:17;98591.25;;;6.49;100.00
59825;BME280;45703;50.898;6.054;2024-02-26T10:23:46;98586.75;;;6.50;100.00
59825;BME280;45703;50.898;6.054;2024-02-26T10:26:13;98592.97;;;6.55;100.00
59825;BME280;45703;50.898;6.054;2024-02-26T10:28:39;98602.38;;;6.63;100.00
59825;BME280;45703;50.898;6.054;2024-02-26T10:31:06;98595.34;;;6.68;100.00
59825;BME280;45703;50.898;6.054;2024-02-26T10:33:35;98600.44;;;6.70;100.00
59825;BME280;45703;50.898;6.054;2024-02-26T10:36:02;98606.63;;;6.75;100.00
59825;BME280;45703;50.898;6.054;2024-02-26T10:38:29;98605.34;;;6.78;100.00
59825;BME280;45703;50.898;6.054;2024-02-26T10:40:55;98614.44;;;6.82;100.00
59825;BME280;45703;50.898;6.054;2024-02-26T10:43:20;98615.78;;;6.84;100.00
59825;BME280;45703;50.898;6.054;2024-02-26T10:45:45;98613.28;;;6.89;100.00
59825;BME280;45703;50.898;6.054;2024-02-26T10:48:14;98624.09;;;6.88;100.00
59825;BME280;45703;50.898;6.054;2024-02-26T10:50:40;98621.22;;;6.89;100.00
59825;BME280;45703;50.898;6.054;2024-02-26T10:53:13;98628.56;;;6.99;100.00
59825;BME280;45703;50.898;6.054;2024-02-26T10:55:40;98625.69;;;7.00;100.00
59825;BME280;45703;50.898;6.054;2024-02-26T10:58:08;98629.56;;;7.09;100.00
59825;BME280;45703;50.898;6.054;2024-02-26T11:00:34;98639.38;;;7.25;100.00
59825;BME280;45703;50.898;6.054;2024-02-26T11:03:02;98640.59;;;7.34;100.00
59825;BME280;45703;50.898;6.054;2024-02-26T11:05:31;98637.63;;;7.30;100.00
59825;BME280;45703;50.898;6.054;2024-02-26T11:07:59;98638.69;;;7.29;100.00
59825;BME280;45703;50.898;6.054;2024-02-26T11:10:26;98636.13;;;7.34;100.00
59825;BME280;45703;50.898;6.054;2024-02-26T11:12:56;98652.00;;;7.46;100.00
59825;BME280;45703;50.898;6.054;2024-02-26T11:15:25;98655.50;;;7.51;100.00
59825;BME280;45703;50.898;6.054;2024-02-26T11:17:52;98655.78;;;7.50;100.00
59825;BME280;45703;50.898;6.054;2024-02-26T11:20:19;98657.88;;;7.48;100.00
59825;BME280;45703;50.898;6.054;2024-02-26T11:22:45;98659.88;;;7.41;100.00
59825;BME280;45703;50.898;6.054;2024-02-26T11:25:11;98660.19;;;7.44;100.00
59825;BME280;45703;50.898;6.054;2024-02-26T11:27:47;98658.91;;;7.47;100.00
59825;BME280;45703;50.898;6.054;2024-02-26T11:30:14;98666.31;;;7.45;100.00
59825;BME280;45703;50.898;6.054;2024-02-26T11:32:44;98666.09;;;7.35;100.00
59825;BME280;45703;50.898;6.054;2024-02-26T11:35:10;98658.97;;;7.35;100.00
59825;BME280;45703;50.898;6.054;2024-02-26T11:37:40;98669.16;;;7.27;100.00
59825;BME280;45703;50.898;6.054;2024-02-26T11:40:11;98667.31;;;7.27;100.00
59825;BME280;45703;50.898;6.054;2024-02-26T11:42:43;98660.91;;;7.12;100.00
59825;BME280;45703;50.898;6.054;2024-02-26T11:45:38;98675.69;;;7.08;100.00
59825;BME280;45703;50.898;6.054;2024-02-26T11:48:20;98668.13;;;7.00;100.00
59825;BME280;45703;50.898;6.054;2024-02-26T11:53:27;98679.53;;;7.01;100.00
59825;BME280;45703;50.898;6.054;2024-02-26T11:59:04;98680.91;;;7.03;100.00
59825;BME280;45703;50.898;6.054;2024-02-26T12:01:47;98690.22;;;7.06;100.00
59825;BME280;45703;50.898;6.054;2024-02-26T12:04:22;98692.09;;;7.05;100.00
59825;BME280;45703;50.898;6.054;2024-02-26T12:07:00;98697.72;;;7.08;100.00
59825;BME280;45703;50.898;6.054;2024-02-26T12:09:38;98703.13;;;7.13;100.00
59825;BME280;45703;50.898;6.054;2024-02-26T12:12:12;98702.53;;;7.11;100.00
59825;BME280;45703;50.898;6.054;2024-02-26T12:14:53;98701.75;;;7.11;100.00
59825;BME280;45703;50.898;6.054;2024-02-26T12:17:22;98710.19;;;7.08;100.00
59825;BME280;45703;50.898;6.054;2024-02-26T12:19:47;98705.94;;;7.07;100.00
59825;BME280;45703;50.898;6.054;2024-02-26T12:22:13;98710.19;;;7.08;100.00
59825;BME280;45703;50.898;6.054;2024-02-26T12:24:40;98713.22;;;7.00;100.00
59825;BME280;45703;50.898;6.054;2024-02-26T12:27:05;98725.34;;;6.96;100.00
59825;BME280;45703;50.898;6.054;2024-02-26T12:29:31;98724.19;;;6.92;100.00
59825;BME280;45703;50.898;6.054;2024-02-26T12:31:56;98727.41;;;6.94;100.00
59825;BME280;45703;50.898;6.054;2024-02-26T12:34:23;98737.69;;;6.91;100.00
59825;BME280;45703;50.898;6.054;2024-02-26T12:36:48;98740.13;;;6.81;100.00
59825;BME280;45703;50.898;6.054;2024-02-26T12:39:14;98739.19;;;6.75;100.00
59825;BME280;45703;50.898;6.054;2024-02-26T12:41:40;98757.41;;;6.83;100.00
59825;BME280;45703;50.898;6.054;2024-02-26T12:44:05;98758.69;;;6.81;100.00
59825;BME280;45703;50.898;6.054;2024-02-26T12:46:32;98764.78;;;6.81;100.00
59825;BME280;45703;50.898;6.054;2024-02-26T12:48:58;98777.00;;;6.82;100.00
59825;BME280;45703;50.898;6.054;2024-02-26T12:51:25;98770.56;;;6.78;100.00
59825;BME280;45703;50.898;6.054;2024-02-26T12:53:51;98775.66;;;6.80;100.00
59825;BME280;45703;50.898;6.054;2024-02-26T12:56:18;98781.88;;;6.74;100.00
59825;BME280;45703;50.898;6.054;2024-02-26T12:58:44;98784.28;;;6.75;100.00
59825;BME280;45703;50.898;6.054;2024-02-26T13:01:15;98801.34;;;6.79;100.00